Tiempo atmosférico en la estación meteorológica de Benabarre, Huesca (765 m.)



Fecha
DESCASC
Temp. máxima en grados centígrados (hora)
DESCASC
Temp. mínima en grados centígrados (hora)
DESCASC
Temp. media en grados centígrados
DESCASC
Racha de viento máxima en m/sg (hora)
DESCASC
Velocidad máxima media en intervalos de 10 minutos(hora)
DESCASC
Precipitaciones diarias en mm
DESCASC
Precipitaciones de 00:00 a 06:00 en mm
DESCASC
Precipitaciones de 06:00 a 12:00 en mm
DESCASC
Precipitaciones de 12:00 a 18:00 en mm
DESCASC
Precipitaciones de 18:00 a 24:00 en mm
DESCASC
20-09-2018 28 (16:50) 14.5 (07:20) 21.3 5.56 (14:40) 3.33 (18:10) 0 0 0 0 0
19-09-2018 26.9 (17:30) 13.3 (07:40) 20.1 5 (13:00) 3.89 (02:50) 0 0 0 0 0
18-09-2018 26.3 (15:10) 15.2 (08:30) 20.7 13.06 (20:20) 7.78 (20:10) 0.4 0 0 0 0.4
17-09-2018 27.1 (16:30) 14 (08:10) 20.6 9.17 (19:20) 5 (19:20) 0 0 0 0 0
16-09-2018 26 (17:30) 14.3 (00:00) 20.2 5.83 (16:40) 3.33 (11:10) 0 0 0 0 0
15-09-2018 23.6 (16:30) 13.8 (00:00) 18.7 6.94 (17:20) 3.89 (17:10) 0 0 0 0 0
14-09-2018 25.7 (17:00) 13.4 (00:00) 19.6 6.39 (13:30) 3.89 (13:40) 0 0 0 0 0
13-09-2018 25.6 (16:30) 13.3 (00:00) 19.5 6.67 (15:20) 4.17 (16:00) 0 0 0 0 0
12-09-2018 23.8 (13:20) 15 (00:00) 19.4 6.67 (18:30) 4.17 (18:30) 0.4 0 0.2 0.2 0
11-09-2018 25.7 (16:40) 14.3 (00:00) 20 5 (21:50) 3.61 (23:20) 0 0 0 0 0
10-09-2018 25.2 (16:40) 14.6 (00:00) 19.9 10 (19:20) 5.83 (19:20) 15.8 0 0 0 15.8
09-09-2018 24.8 (13:00) 16 (00:00) 20.4 10 (16:10) 6.67 (16:10) 9.4 0 0 9.4 0
08-09-2018 25.7 (13:40) 13 (00:00) 19.4 6.11 (18:30) 3.61 (16:10) 0 0 0 0 0
07-09-2018 24.1 (15:20) 12.4 (00:00) 18.3 6.39 (02:50) 4.72 (02:40) 0 0 0 0 0
06-09-2018 23.6 (15:40) 12.8 (00:00) 18.2 8.89 (17:10) 5.56 (17:10) 0 0 0 0 0
05-09-2018 25.9 (16:00) 14.9 (00:00) 20.4 14.44 (22:50) 9.72 (22:50) 11 11 0 0 0
04-09-2018 28.2 (15:50) 14.2 (00:00) 21.2 8.33 (16:40) 5.56 (03:10) 0 0 0 0 0
03-09-2018 28.4 (17:20) 16 (00:00) 22.2 11.39 (22:00) 6.39 (22:00) 0 0 0 0 0
02-09-2018 28 (17:30) 15.6 (00:00) 21.8 6.67 (15:50) 3.61 (18:40) 0 0 0 0 0
01-09-2018 26.9 (18:00) 16.3 (00:00) 21.6 6.11 (17:00) 3.33 (17:10) 0 0 0 0 0
31-08-2018 25.9 (18:30) 16.9 (00:00) 21.4 8.61 (14:20) 5.56 (14:20) 0 0 0 0 0
30-08-2018 25.8 (14:30) 16.7 (00:00) 21.3 6.67 (16:30) 4.44 (16:40) 0 0 0 0 0
29-08-2018 28.3 (17:30) 15 (00:00) 21.6 11.94 (01:40) 8.06 (01:40) 0 0 0 0 0
28-08-2018 29.7 (15:00) 16.8 (00:00) 23.3 13.89 (21:00) 8.61 (21:00) 4 0 0 0 4
27-08-2018 29.4 (17:00) 12.5 (00:00) 20.9 6.39 (14:40) 3.61 (14:30) 0 0 0 0 0
26-08-2018 24.5 (18:20) 10.2 (00:00) 17.3 8.06 (14:40) 4.17 (14:20) 0 0 0 0 0
25-08-2018 24.5 (17:30) 11.3 (00:00) 17.9 7.78 (17:40) 5.28 (15:00) 0 0 0 0 0
24-08-2018 28.1 (18:50) 14 (00:00) 21.1 10.56 (19:30) 6.39 (19:40) 0 0 0 0 0

Gráficas

Temp. máximas Temp. mínimas Temp. medias Precipitaciones Rachas de viento máximas Velocidades máximas media en intervalos de 10 minutos

Datos horarios

Fecha y hora oficial Temperatura (ºC) Velocidad del viento (km/h) Dirección del viento Racha (km/h) Dirección de racha Precipitación (mm) Presión (hPa) Tendencia (hPa) Humedad (%)
2018-09-22 23:00:00 18.4 7 Norte 12 Norte 0 -- -- 68
2018-09-22 22:00:00 18.9 6 Norte 12 Norte 0 -- -- 67
2018-09-22 21:00:00 20.2 9 Norte 12 Norte 0 -- -- 65
2018-09-22 20:00:00 26.1 3 Sudoeste 15 Oeste 0 -- -- 46
2018-09-22 19:00:00 27.8 9 Oeste 23 Oeste 0 -- -- 42
2018-09-22 18:00:00 27.9 13 Oeste 25 Oeste 0 -- -- 43
2018-09-22 17:00:00 27 13 Noroeste 27 Oeste 0 -- -- 46
2018-09-22 16:00:00 26.3 11 Noroeste 23 Oeste 0 -- -- 46
2018-09-22 15:00:00 25.5 14 Noroeste 24 Oeste 0 -- -- 45
2018-09-22 14:00:00 25.3 16 Noroeste 26 Noroeste 0 -- -- 47
2018-09-22 13:00:00 24.9 12 Noroeste 18 Noroeste 0 -- -- 48
2018-09-22 12:00:00 23.8 7 Oeste 15 Oeste 0 -- -- 52
2018-09-22 11:00:00 22.2 4 Sudeste 9 Sudeste 0 -- -- 62
2018-09-22 10:00:00 19.2 4 Sudeste 7 Este 0 -- -- 64
2018-09-22 09:00:00 16.1 3 Este 7 Norte 0 -- -- 72
2018-09-22 08:00:00 13.6 3 Norte 10 Norte 0 -- -- 85
2018-09-22 07:00:00 13.6 4 Norte 9 Norte 0 -- -- 81
2018-09-22 06:00:00 13.6 7 Norte 10 Norte 0 -- -- 73
2018-09-22 05:00:00 14.1 4 Norte 11 Norte 0 -- -- 65
2018-09-22 04:00:00 14.2 2 Nordeste 12 Norte 0 -- -- 60
2018-09-22 03:00:00 14.9 4 Norte 9 Noroeste 0 -- -- 58
2018-09-22 02:00:00 15.7 9 Noroeste 13 Norte 0 -- -- 57
2018-09-22 01:00:00 16.4 9 Noroeste 12 Noroeste 0 -- -- 54
2018-09-22 00:00:00 20.2 9 Noroeste 15 Noroeste 0 -- -- 43
2018-09-21 23:00:00 21.2 8 Noroeste 16 Noroeste 0 -- -- 40
2018-09-21 22:00:00 22.6 11 Noroeste 15 Noroeste 0 -- -- 45
2018-09-21 21:00:00 23.3 9 Noroeste 14 Oeste 0 -- -- 44
2018-09-21 20:00:00 24.9 11 Oeste 29 Noroeste 0 -- -- 41
2018-09-21 19:00:00 26.7 20 Noroeste 33 Noroeste 0 -- -- 39
2018-09-21 18:00:00 27.2 13 Oeste 31 Oeste 0 -- -- 47
2018-09-21 17:00:00 28 20 Oeste 35 Oeste 0 -- -- 45
2018-09-21 16:00:00 28.1 15 Noroeste 29 Oeste 0 -- -- 44
2018-09-21 15:00:00 27.7 14 Oeste 25 Oeste 0 -- -- 46
2018-09-21 14:00:00 26.9 11 Noroeste 21 Noroeste 0 -- -- 48
2018-09-21 13:00:00 26.4 10 Oeste 21 Noroeste 0 -- -- 52
2018-09-21 12:00:00 26 6 Noroeste 12 Noroeste 0 -- -- 49
2018-09-21 11:00:00 23.5 3 Sudoeste 8 Oeste 0 -- -- 66
2018-09-21 10:00:00 20.9 3 Sudoeste 5 Sudoeste 0 -- -- 73
2018-09-21 09:00:00 17.6 2 Noroeste 7 Norte 0 -- -- 86
2018-09-21 08:00:00 15.6 6 Norte 11 Norte 0 -- -- 89
2018-09-21 07:00:00 15.7 8 Norte 12 Norte 0 -- -- 89
2018-09-21 06:00:00 15.8 6 Norte 10 Norte 0 -- -- 88
2018-09-21 05:00:00 16 7 Norte 9 Norte 0 -- -- 87
2018-09-21 04:00:00 16.6 5 Norte 13 Norte 0 -- -- 85
2018-09-21 03:00:00 16.4 8 Norte 12 Norte 0 -- -- 85
2018-09-21 02:00:00 16.6 9 Norte 12 Norte 0 -- -- 85
2018-09-21 01:00:00 17 8 Norte 12 Norte 0 -- -- 83
2018-09-21 00:00:00 17.6 3 Norte 8 Norte 0 -- -- 80
2018-09-20 23:00:00 18.1 3 Nordeste 11 Norte 0 -- -- 78
2018-09-20 22:00:00 18.8 8 Norte 11 Norte 0 -- -- 76
2018-09-20 21:00:00 20 9 Norte 11 Noroeste 0 -- -- 74
2018-09-20 20:00:00 24.4 6 Noroeste 15 Noroeste 0 -- -- 58
2018-09-20 19:00:00 26.6 9 Oeste 18 Oeste 0 -- -- 51
2018-09-20 18:00:00 27.5 9 Oeste 20 Oeste 0 -- -- 47
2018-09-20 17:00:00 27.9 10 Oeste 18 Oeste 0 -- -- 42
2018-09-20 16:00:00 27.8 5 Noroeste 19 Oeste 0 -- -- 43
2018-09-20 15:00:00 27.1 12 Noroeste 20 Noroeste 0 -- -- 43
2018-09-20 14:00:00 26.3 9 Oeste 19 Oeste 0 -- -- 46
2018-09-20 13:00:00 25.5 10 Noroeste 17 Noroeste 0 -- -- 53
2018-09-20 12:00:00 25.2 4 Sur 13 Sudeste 0 -- -- 56
2018-09-20 11:00:00 23.2 10 Este 18 Este 0 -- -- 59
2018-09-20 10:00:00 20.7 7 Sudeste 12 Sudeste 0 -- -- 72
2018-09-20 09:00:00 16.7 3 Norte 11 Norte 0 -- -- 89
2018-09-20 08:00:00 14.6 9 Norte 12 Norte 0 -- -- 91
2018-09-20 07:00:00 14.8 7 Norte 10 Norte 0 -- -- 90
2018-09-20 06:00:00 15 9 Norte 12 Norte 0 -- -- 92
2018-09-20 05:00:00 15.4 7 Noroeste 11 Norte 0 -- -- 91
2018-09-20 04:00:00 15.7 5 Norte 10 Norte 0 -- -- 91
2018-09-20 03:00:00 15.9 6 Norte 12 Norte 0 -- -- 90
2018-09-20 02:00:00 16.3 8 Norte 10 Norte 0 -- -- 89
2018-09-20 01:00:00 16.6 5 Norte 9 Norte 0 -- -- 87
2018-09-20 00:00:00 17.3 3 Norte 10 Norte 0 -- -- 85
2018-09-19 23:00:00 17.7 6 Norte 9 Noroeste 0 -- -- 83
2018-09-19 22:00:00 18.8 4 Nordeste 12 Este 0 -- -- 79
2018-09-19 21:00:00 20.2 5 Este 10 Noroeste 0 -- -- 73
2018-09-19 20:00:00 23.2 8 Noroeste 16 Oeste 0 -- -- 62
2018-09-19 19:00:00 25.9 9 Oeste 15 Oeste 0 -- -- 50
2018-09-19 18:00:00 26.7 5 Noroeste 15 Oeste 0 -- -- 46
2018-09-19 17:00:00 26.4 4 Oeste 18 Oeste 0 -- -- 48
2018-09-19 16:00:00 25.6 9 Noroeste 17 Oeste 0 -- -- 53
2018-09-19 15:00:00 25 9 Noroeste 17 Noroeste 0 -- -- 55
2018-09-19 14:00:00 24.2 8 Noroeste 16 Noroeste 0 -- -- 59
2018-09-19 13:00:00 23.2 9 Noroeste 18 Noroeste 0 -- -- 58
2018-09-19 12:00:00 23.1 3 Este 10 Sudoeste 0 -- -- 59
2018-09-19 11:00:00 21.1 4 Sudeste 14 Este 0 -- -- 68
2018-09-19 10:00:00 18.4 5 Sudeste 8 Sur 0 -- -- 82
2018-09-19 09:00:00 15.3 2 Noroeste 10 Norte 0 -- -- 92
2018-09-19 08:00:00 13.4 4 Norte 10 Norte 0 -- -- 93
2018-09-19 07:00:00 13.7 6 Norte 13 Norte 0 -- -- 93
2018-09-19 06:00:00 14 6 Norte 15 Nordeste 0 -- -- 92
2018-09-19 05:00:00 14.5 6 Este 9 Nordeste 0 -- -- 90
2018-09-19 04:00:00 15.1 4 Nordeste 15 Nordeste 0 -- -- 88
2018-09-19 03:00:00 15.3 10 Nordeste 18 Este 0 -- -- 89
2018-09-19 02:00:00 15.1 12 Nordeste 15 Nordeste 0 -- -- 93
2018-09-19 01:00:00 15.6 5 Este 17 Noroeste 0 -- -- 92
2018-09-19 00:00:00 16.3 5 Noroeste 21 Oeste 0 -- -- 87
2018-09-18 23:00:00 15.9 9 Nordeste 22 Este 0 -- -- 90
2018-09-18 22:00:00 16 12 Este 18 Este 0 -- -- 88
2018-09-18 21:00:00 15.8 10 Nordeste 47 Norte 0.4 -- -- 87
2018-09-18 20:00:00 21.1 15 Norte 42 Norte 0 -- -- 67
2018-09-18 19:00:00 23.3 18 Sur 27 Sudeste 0 -- -- 55
2018-09-18 18:00:00 24.1 15 Sudeste 25 Sudeste 0 -- -- 54
2018-09-18 17:00:00 24.3 16 Sudeste 26 Sudeste 0 -- -- 59
2018-09-18 16:00:00 25.6 11 Sur 30 Sur 0 -- -- 55
2018-09-18 15:00:00 26.2 9 Sudeste 19 Sur 0 -- -- 38
2018-09-18 14:00:00 24.9 9 Noroeste 15 Oeste 0 -- -- 49
2018-09-18 13:00:00 24.7 9 Sudeste 26 Este 0 -- -- 50
2018-09-18 12:00:00 23.3 13 Este 27 Este 0 -- -- 60
2018-09-18 11:00:00 21.6 10 Sudeste 26 Este 0 -- -- 71
2018-09-18 10:00:00 18.9 9 Este 14 Este 0 -- -- 81
2018-09-18 09:00:00 16.2 8 Norte 10 Norte 0 -- -- 93
2018-09-18 08:00:00 15.7 3 Nordeste 11 Este 0 -- -- 91
2018-09-18 07:00:00 16.2 6 Este 11 Sudeste 0 -- -- 89
2018-09-18 06:00:00 16.8 6 Este 9 Este 0 -- -- 86
2018-09-18 05:00:00 16.9 4 Norte 9 Norte 0 -- -- 86
2018-09-18 04:00:00 16.7 0 Calma 10 Norte 0 -- -- 86
2018-09-18 03:00:00 16.7 3 Norte 11 Este 0 -- -- 85
2018-09-18 02:00:00 16.2 3 Este 8 Norte 0 -- -- 86
2018-09-18 01:00:00 15.5 7 Norte 12 Norte 0 -- -- 86
2018-09-18 00:00:00 16.4 5 Norte 11 Nordeste 0 -- -- 80
2018-09-17 23:00:00 19 2 Este 16 Sudeste 0 -- -- 68
2018-09-17 22:00:00 20 12 Sudeste 22 Este 0 -- -- 66
2018-09-17 21:00:00 21.2 9 Sudeste 24 Sudeste 0 -- -- 67
2018-09-17 20:00:00 22.9 15 Sudeste 33 Sudeste 0 -- -- 58
2018-09-17 19:00:00 25.4 18 Sur 26 Sur 0 -- -- 46
2018-09-17 18:00:00 26.3 10 Sur 23 Sur 0 -- -- 46
2018-09-17 17:00:00 26.8 12 Sudeste 21 Sudeste 0 -- -- 39
2018-09-17 16:00:00 26.3 11 Sur 23 Sudeste 0 -- -- 44
2018-09-17 15:00:00 26.6 9 Sudeste 22 Este 0 -- -- 47
2018-09-17 14:00:00 25.9 9 Sur 20 Sudeste 0 -- -- 49
2018-09-17 13:00:00 24.7 6 Sudeste 18 Sudeste 0 -- -- 53
2018-09-17 12:00:00 23.8 8 Sudeste 18 Sudeste 0 -- -- 58
2018-09-17 11:00:00 22.2 9 Este 19 Este 0 -- -- 65
2018-09-17 10:00:00 18 9 Este 14 Nordeste 0 -- -- 81
2018-09-17 09:00:00 15.7 4 Norte 12 Norte 0 -- -- 88
2018-09-17 08:00:00 14.2 6 Norte 11 Norte 0 -- -- 90
2018-09-17 07:00:00 14.8 3 Norte 9 Norte 0 -- -- 88
2018-09-17 06:00:00 15 8 Norte 10 Norte 0 -- -- 87
2018-09-17 05:00:00 15.6 8 Noroeste 14 Norte 0 -- -- 86
2018-09-17 04:00:00 15.4 8 Norte 12 Norte 0 -- -- 87
2018-09-17 03:00:00 15.6 7 Norte 10 Norte 0 -- -- 83
2018-09-17 02:00:00 16.1 10 Norte 12 Norte 0 -- -- 82
2018-09-17 01:00:00 17.2 5 Este 12 Nordeste 0 -- -- 80
2018-09-17 00:00:00 18 3 Este 11 Sudeste 0 -- -- 79
2018-09-16 23:00:00 19.6 8 Este 18 Este 0 -- -- 72
2018-09-16 22:00:00 20.4 8 Este 13 Este 0 -- -- 68
2018-09-16 21:00:00 21.4 8 Sudeste 12 Sudeste 0 -- -- 65
2018-09-16 20:00:00 24.1 4 Sudoeste 12 Noroeste 0 -- -- 58
2018-09-16 19:00:00 25.5 8 Oeste 17 Noroeste 0 -- -- 53
2018-09-16 18:00:00 25.9 9 Oeste 18 Oeste 0 -- -- 53
2018-09-16 17:00:00 25.9 8 Oeste 21 Oeste 0 -- -- 52
2018-09-16 16:00:00 25.6 10 Noroeste 18 Oeste 0 -- -- 52
2018-09-16 15:00:00 25 8 Oeste 17 Noroeste 0 -- -- 55
2018-09-16 14:00:00 24.3 9 Noroeste 19 Oeste 0 -- -- 53
2018-09-16 13:00:00 23.4 8 Noroeste 15 Oeste 0 -- -- 58
2018-09-16 12:00:00 21.7 8 Oeste 17 Oeste 0 -- -- 69
2018-09-16 11:00:00 20.1 10 Oeste 15 Oeste 0 -- -- 77
2018-09-16 10:00:00 18 5 Noroeste 14 Noroeste 0 -- -- 88
2018-09-16 09:00:00 16.3 4 Norte 8 Noroeste 0 -- -- 95
2018-09-16 08:00:00 15.4 4 Noroeste 9 Norte 0 -- -- 94
2018-09-16 07:00:00 14.8 3 Nordeste 13 Norte 0 -- -- 95
2018-09-16 06:00:00 14.6 8 Norte 12 Norte 0 -- -- 95
2018-09-16 05:00:00 14.3 0 Calma 8 Norte 0 -- -- 95
2018-09-16 04:00:00 15 0 Calma 5 Norte 0 -- -- 93
2018-09-16 03:00:00 15.3 5 Norte 8 Noroeste 0 -- -- 91
2018-09-16 02:00:00 15.8 8 Noroeste 9 Noroeste 0 -- -- 89
2018-09-16 01:00:00 16.2 3 Norte 13 Norte 0 -- -- 87
2018-09-16 00:00:00 16 9 Norte 14 Norte 0 -- -- 88
2018-09-15 23:00:00 16.4 6 Norte 9 Norte 0 -- -- 85
2018-09-15 22:00:00 16.5 7 Norte 10 Norte 0 -- -- 85
2018-09-15 21:00:00 18.2 2 Noroeste 6 Norte 0 -- -- 78
2018-09-15 20:00:00 20.2 6 Sudeste 17 Sur 0 -- -- 68
2018-09-15 19:00:00 21.1 10 Sudeste 21 Sudeste 0 -- -- 66
2018-09-15 18:00:00 22.5 11 Sur 25 Sur 0 -- -- 63
2018-09-15 17:00:00 23.6 8 Sur 14 Sur 0 -- -- 62
2018-09-15 16:00:00 23.2 0 Calma 14 Sudoeste 0 -- -- 67
2018-09-15 15:00:00 22.8 5 Oeste 12 Oeste 0 -- -- 68
2018-09-15 14:00:00 22.4 4 Sudoeste 16 Sudeste 0 -- -- 69
2018-09-15 13:00:00 22 8 Sur 15 Sudeste 0 -- -- 72
2018-09-15 12:00:00 22.6 5 Sudeste 14 Sudeste 0 -- -- 68
2018-09-15 11:00:00 21.1 5 Sudeste 9 Este 0 -- -- 75
2018-09-15 10:00:00 19.1 3 Sudeste 9 Sudeste 0 -- -- 77
2018-09-15 09:00:00 15.6 3 Este 7 Norte 0 -- -- 88
2018-09-15 08:00:00 14.2 8 Norte 12 Norte 0 -- -- 91
2018-09-15 07:00:00 14.1 2 Nordeste 10 Norte 0 -- -- 89
2018-09-15 06:00:00 13.8 7 Norte 9 Noroeste 0 -- -- 90
2018-09-15 05:00:00 14.3 3 Norte 9 Norte 0 -- -- 87
2018-09-15 04:00:00 14.5 7 Norte 9 Norte 0 -- -- 86
2018-09-15 03:00:00 15.1 2 Este 8 Nordeste 0 -- -- 84
2018-09-15 02:00:00 15.2 4 Nordeste 9 Nordeste 0 -- -- 85
2018-09-15 01:00:00 15.4 5 Norte 10 Norte 0 -- -- 84
2018-09-15 00:00:00 15.9 9 Norte 11 Norte 0 -- -- 83
2018-09-14 23:00:00 16.5 5 Norte 9 Norte 0 -- -- 82
2018-09-14 22:00:00 17.3 6 Norte 10 Norte 0 -- -- 81
2018-09-14 21:00:00 18.7 6 Norte 9 Norte 0 -- -- 79
2018-09-14 20:00:00 23.1 0 Calma 12 Sudoeste 0 -- -- 61
2018-09-14 19:00:00 24.4 7 Sudoeste 18 Oeste 0 -- -- 53
2018-09-14 18:00:00 24.7 10 Oeste 21 Oeste 0 -- -- 52
2018-09-14 17:00:00 25.7 9 Oeste 19 Oeste 0 -- -- 49
2018-09-14 16:00:00 25.3 8 Noroeste 18 Sudoeste 0 -- -- 54
2018-09-14 15:00:00 24.5 11 Sur 22 Sur 0 -- -- 52
2018-09-14 14:00:00 24.7 9 Sur 23 Sudeste 0 -- -- 57
2018-09-14 13:00:00 24.5 9 Sudeste 18 Sudeste 0 -- -- 57
2018-09-14 12:00:00 23 8 Este 15 Este 0 -- -- 57
2018-09-14 11:00:00 20.9 7 Sudeste 12 Sudeste 0 -- -- 71
2018-09-14 10:00:00 18.7 6 Este 9 Este 0 -- -- 82
2018-09-14 09:00:00 16.2 3 Sudeste 9 Norte 0 -- -- 87
2018-09-14 08:00:00 13.4 3 Este 6 Norte 0 -- -- 93
2018-09-14 07:00:00 13.9 2 Sudeste 8 Norte 0 -- -- 92
2018-09-14 06:00:00 13.9 2 Nordeste 9 Norte 0 -- -- 91
2018-09-14 05:00:00 14.5 4 Norte 11 Norte 0 -- -- 89
2018-09-14 04:00:00 14.8 8 Norte 11 Norte 0 -- -- 88
2018-09-14 03:00:00 15.2 4 Norte 9 Norte 0 -- -- 87
2018-09-14 02:00:00 15.6 9 Norte 11 Norte 0 -- -- 88
2018-09-14 01:00:00 15.8 8 Norte 11 Norte 0 -- -- 86
2018-09-14 00:00:00 16.2 7 Norte 11 Norte 0 -- -- 84
2018-09-13 23:00:00 16.8 7 Norte 11 Norte 0 -- -- 82
2018-09-13 22:00:00 18.1 6 Norte 12 Noroeste 0 -- -- 78
2018-09-13 21:00:00 19.9 4 Noroeste 9 Oeste 0 -- -- 71
2018-09-13 20:00:00 24.2 4 Sudoeste 16 Oeste 0 -- -- 56
2018-09-13 19:00:00 25.3 9 Oeste 18 Noroeste 0 -- -- 51
2018-09-13 18:00:00 25.4 12 Oeste 23 Noroeste 0 -- -- 50
2018-09-13 17:00:00 25.4 13 Noroeste 23 Oeste 0 -- -- 52
2018-09-13 16:00:00 25.1 15 Noroeste 24 Oeste 0 -- -- 53
2018-09-13 15:00:00 25.1 11 Oeste 20 Oeste 0 -- -- 54
2018-09-13 14:00:00 24.6 8 Noroeste 22 Noroeste 0 -- -- 59
2018-09-13 13:00:00 23.6 8 Noroeste 13 Oeste 0 -- -- 59
2018-09-13 12:00:00 22 6 Noroeste 12 Noroeste 0 -- -- 61
2018-09-13 11:00:00 19.6 9 Noroeste 13 Noroeste 0 -- -- 71
2018-09-13 10:00:00 18.7 3 Sur 8 Este 0 -- -- 78
2018-09-13 09:00:00 15.9 2 Sur 8 Norte 0 -- -- 86
2018-09-13 08:00:00 13.4 8 Norte 12 Norte 0 -- -- 92
2018-09-13 07:00:00 13.8 8 Norte 12 Norte 0 -- -- 90
2018-09-13 06:00:00 14.8 8 Norte 14 Noroeste 0 -- -- 90
2018-09-13 05:00:00 14.3 13 Norte 15 Norte 0 -- -- 91
2018-09-13 04:00:00 14.6 8 Norte 12 Norte 0 -- -- 89
2018-09-13 03:00:00 15.1 8 Norte 15 Noroeste 0 -- -- 92
2018-09-13 02:00:00 15.7 9 Noroeste 14 Noroeste 0 -- -- 91
2018-09-13 01:00:00 15.4 8 Norte 13 Norte 0 -- -- 91
2018-09-13 00:00:00 16.5 6 Norte 11 Norte 0 -- -- 87
2018-09-12 23:00:00 17 6 Norte 12 Noroeste 0 -- -- 88
2018-09-12 22:00:00 17.4 5 Norte 9 Norte 0 -- -- 85
2018-09-12 21:00:00 18.8 6 Norte 15 Noroeste 0 -- -- 79
2018-09-12 20:00:00 20.5 13 Noroeste 17 Oeste 0 -- -- 73
2018-09-12 19:00:00 22.4 12 Oeste 24 Oeste 0 -- -- 68
2018-09-12 18:00:00 22.7 14 Oeste 23 Oeste 0 -- -- 68
2018-09-12 17:00:00 23.3 11 Noroeste 18 Noroeste 0 -- -- 66
2018-09-12 16:00:00 22.5 11 Oeste 21 Noroeste 0 -- -- 70
2018-09-12 15:00:00 22 13 Noroeste 20 Noroeste 0 -- -- 71
2018-09-12 14:00:00 21.1 10 Oeste 19 Oeste 0.2 -- -- 78
2018-09-12 13:00:00 23.5 10 Este 15 Este 0 -- -- 62
2018-09-12 12:00:00 22.4 7 Sudeste 14 Sudeste 0 -- -- 63
2018-09-12 11:00:00 19 5 Este 8 Este 0.2 -- -- 85
2018-09-12 10:00:00 18.3 4 Sur 18 Nordeste 0 -- -- 84
2018-09-12 09:00:00 16.5 6 Este 12 Nordeste 0 -- -- 88
2018-09-12 08:00:00 16.1 0 Calma 14 Nordeste 0 -- -- 87
2018-09-12 07:00:00 15.6 6 Nordeste 12 Este 0 -- -- 88
2018-09-12 06:00:00 15 10 Nordeste 14 Nordeste 0 -- -- 90
2018-09-12 05:00:00 15.5 4 Noroeste 13 Nordeste 0 -- -- 88
2018-09-12 04:00:00 15.5 10 Nordeste 14 Nordeste 0 -- -- 88
2018-09-12 03:00:00 16 3 Noroeste 8 Nordeste 0 -- -- 87
2018-09-12 02:00:00 16.9 4 Este 15 Nordeste 0 -- -- 84
2018-09-12 01:00:00 17.8 2 Sudeste 10 Norte 0 -- -- 81
2018-09-12 00:00:00 18.2 6 Norte 17 Nordeste 0 -- -- 82
2018-09-11 23:00:00 19.4 2 Nordeste 10 Este 0 -- -- 74
2018-09-11 22:00:00 20.6 8 Sudeste 18 Sudeste 0 -- -- 67
2018-09-11 21:00:00 19.9 8 Norte 10 Norte 0 -- -- 80
2018-09-11 20:00:00 22.8 7 Noroeste 10 Oeste 0 -- -- 64
2018-09-11 19:00:00 23.6 8 Noroeste 17 Noroeste 0 -- -- 61
2018-09-11 18:00:00 24.1 5 Sudoeste 11 Sur 0 -- -- 54
2018-09-11 17:00:00 25 4 Sur 15 Sudeste 0 -- -- 54
2018-09-11 16:00:00 25.1 4 Sudeste 13 Este 0 -- -- 57
2018-09-11 15:00:00 23.6 9 Oeste 15 Noroeste 0 -- -- 60
2018-09-11 14:00:00 23.9 2 Sudoeste 8 Este 0 -- -- 56
2018-09-11 13:00:00 22.6 3 Sudeste 8 Sudeste 0 -- -- 62
2018-09-11 12:00:00 21 6 Este 12 Este 0 -- -- 68
2018-09-11 11:00:00 20.3 5 Sudeste 8 Sudeste 0 -- -- 68
2018-09-11 10:00:00 19.3 3 Sudoeste 6 Sur 0 -- -- 85
2018-09-11 09:00:00 17 2 Oeste 7 Norte 0 -- -- 93
2018-09-11 08:00:00 16.3 2 Sudeste 15 Este 0 -- -- 87
2018-09-11 07:00:00 15.9 10 Este 15 Este 0 -- -- 88
2018-09-11 06:00:00 15.5 2 Noroeste 15 Este 0 -- -- 92
2018-09-11 05:00:00 14.3 9 Norte 13 Norte 0 -- -- 93
2018-09-11 04:00:00 14.3 9 Norte 13 Norte 0 -- -- 94
2018-09-11 03:00:00 14.8 6 Noroeste 14 Norte 0 -- -- 94
2018-09-11 02:00:00 14.7 9 Norte 15 Nordeste 0 -- -- 95
2018-09-11 01:00:00 15.1 3 Norte 9 Norte 0 -- -- 93
2018-09-11 00:00:00 15.4 8 Norte 12 Norte 0 -- -- 93
2018-09-10 23:00:00 15.8 0 Calma 13 Norte 0 -- -- 93
2018-09-10 22:00:00 15.8 9 Norte 16 Norte 0 -- -- 93
2018-09-10 21:00:00 16.3 11 Norte 17 Norte 0 -- -- 95
2018-09-10 20:00:00 16 12 Noroeste 36 Norte 10 -- -- 93
2018-09-10 19:00:00 20.2 15 Sur 35 Sur 5.8 -- -- 78
2018-09-10 18:00:00 24.5 14 Oeste 22 Oeste 0 -- -- 59
2018-09-10 17:00:00 25.1 9 Oeste 21 Oeste 0 -- -- 55
2018-09-10 16:00:00 24.6 10 Oeste 22 Oeste 0 -- -- 55
2018-09-10 15:00:00 23.8 14 Oeste 24 Oeste 0 -- -- 62
2018-09-10 14:00:00 23 8 Oeste 18 Oeste 0 -- -- 65
2018-09-10 13:00:00 22.8 12 Oeste 19 Oeste 0 -- -- 67
2018-09-10 12:00:00 22.2 8 Sudeste 14 Sudeste 0 -- -- 71
2018-09-10 11:00:00 20.8 3 Sudeste 8 Sudeste 0 -- -- 75
2018-09-10 10:00:00 18.2 4 Sudeste 9 Norte 0 -- -- 87
2018-09-10 09:00:00 15.6 3 Oeste 9 Norte 0 -- -- 97
2018-09-10 08:00:00 14.7 0 Calma 10 Nordeste 0 -- -- 96
2018-09-10 07:00:00 15.1 7 Este 9 Este 0 -- -- 97
2018-09-10 06:00:00 14.6 9 Norte 14 Norte 0 -- -- 97
2018-09-10 05:00:00 15.2 2 Nordeste 7 Norte 0 -- -- 95
2018-09-10 04:00:00 16.1 4 Este 14 Noroeste 0 -- -- 94
2018-09-10 03:00:00 15.7 7 Norte 9 Noroeste 0 -- -- 95
2018-09-10 02:00:00 15.9 8 Norte 12 Norte 0 -- -- 94
2018-09-10 01:00:00 16.6 5 Norte 9 Este 0 -- -- 94
2018-09-10 00:00:00 17.4 5 Norte 8 Este 0 -- -- 92
2018-09-09 23:00:00 18.1 5 Este 10 Este 0 -- -- 90
2018-09-09 22:00:00 18.2 7 Sudeste 9 Este 0 -- -- 89
2018-09-09 21:00:00 17.7 5 Este 9 Sudeste 0 -- -- 90
2018-09-09 20:00:00 18.5 6 Este 15 Sudeste 0 -- -- 84
2018-09-09 19:00:00 19.4 2 Nordeste 11 Norte 0 -- -- 88
2018-09-09 18:00:00 18.5 10 Norte 19 Norte 0.2 -- -- 91
2018-09-09 17:00:00 16.4 17 Nordeste 36 Nordeste 4 -- -- 83
2018-09-09 16:00:00 19.2 18 Este 28 Este 2.8 -- -- 83
2018-09-09 15:00:00 21.9 7 Oeste 17 Oeste 2.4 -- -- 79
2018-09-09 14:00:00 22.8 10 Noroeste 23 Oeste 0 -- -- 66
2018-09-09 13:00:00 24.8 6 Sudoeste 21 Oeste 0 -- -- 58
2018-09-09 12:00:00 24 7 Sur 15 Este 0 -- -- 60
2018-09-09 11:00:00 22.5 4 Este 12 Este 0 -- -- 66
2018-09-09 10:00:00 19.4 3 Oeste 7 Noroeste 0 -- -- 80
2018-09-09 09:00:00 17.3 9 Noroeste 15 Noroeste 0 -- -- 89
2018-09-09 08:00:00 16.2 4 Noroeste 11 Noroeste 0 -- -- 91
2018-09-09 07:00:00 16.3 7 Norte 9 Norte 0 -- -- 87
2018-09-09 06:00:00 16.8 0 Calma 8 Norte 0 -- -- 88
2018-09-09 05:00:00 16.9 5 Norte 9 Norte 0 -- -- 90
2018-09-09 04:00:00 16.9 7 Norte 9 Norte 0 -- -- 91
2018-09-09 03:00:00 16.9 2 Nordeste 6 Nordeste 0 -- -- 90
2018-09-09 02:00:00 17 0 Calma 9 Norte 0 -- -- 89
2018-09-09 01:00:00 16.5 9 Norte 13 Norte 0 -- -- 89
2018-09-09 00:00:00 16.4 7 Norte 10 Norte 0 -- -- 89
2018-09-08 23:00:00 17.4 3 Nordeste 7 Este 0 -- -- 84
2018-09-08 22:00:00 18.1 0 Calma 6 Nordeste 0 -- -- 82
2018-09-08 21:00:00 20.7 3 Este 12 Sur 0 -- -- 72
2018-09-08 20:00:00 22.3 12 Sur 20 Sudeste 0 -- -- 66
2018-09-08 19:00:00 23.5 11 Sur 22 Sudoeste 0 -- -- 61
2018-09-08 18:00:00 24.9 10 Sudeste 19 Sudeste 0 -- -- 51
2018-09-08 17:00:00 25.4 6 Sudoeste 21 Sudeste 0 -- -- 50
2018-09-08 16:00:00 24.7 11 Sudeste 21 Sur 0 -- -- 49
2018-09-08 15:00:00 24.7 6 Sur 18 Sudeste 0 -- -- 50
2018-09-08 14:00:00 25.7 7 Nordeste 19 Este 0 -- -- 50
2018-09-08 13:00:00 24.5 8 Este 18 Este 0 -- -- 54
2018-09-08 12:00:00 22.9 8 Este 14 Sudeste 0 -- -- 57
2018-09-08 11:00:00 21.7 7 Este 13 Sudeste 0 -- -- 64
2018-09-08 10:00:00 19.2 6 Sudeste 11 Sudeste 0 -- -- 76
2018-09-08 09:00:00 15.8 3 Sur 8 Norte 0 -- -- 85
2018-09-08 08:00:00 13.8 2 Oeste 6 Norte 0 -- -- 88
2018-09-08 07:00:00 13.3 0 Calma 12 Nordeste 0 -- -- 91
2018-09-08 06:00:00 13.6 6 Norte 9 Norte 0 -- -- 90
2018-09-08 05:00:00 14.5 0 Calma 10 Norte 0 -- -- 88
2018-09-08 04:00:00 13.9 4 Noroeste 13 Norte 0 -- -- 89
2018-09-08 03:00:00 13.9 8 Norte 10 Norte 0 -- -- 88
2018-09-08 02:00:00 14.1 4 Nordeste 10 Norte 0 -- -- 86
2018-09-08 01:00:00 14 9 Norte 12 Noroeste 0 -- -- 86
2018-09-08 00:00:00 14.4 5 Norte 9 Norte 0 -- -- 82
2018-09-07 23:00:00 15 2 Nordeste 10 Norte 0 -- -- 81
2018-09-07 22:00:00 15.9 9 Norte 10 Norte 0 -- -- 81
2018-09-07 21:00:00 18.6 3 Norte 10 Sur 0 -- -- 72
2018-09-07 20:00:00 22.1 7 Sur 16 Sudeste 0 -- -- 57
2018-09-07 19:00:00 23 12 Sudeste 18 Sudeste 0 -- -- 54
2018-09-07 18:00:00 23.7 8 Sur 19 Sur 0 -- -- 53
2018-09-07 17:00:00 22.8 8 Sur 16 Sudoeste 0 -- -- 56
2018-09-07 16:00:00 23 5 Sur 22 Sur 0 -- -- 56
2018-09-07 15:00:00 23.9 10 Sudoeste 19 Sur 0 -- -- 55
2018-09-07 14:00:00 22.4 7 Sur 16 Oeste 0 -- -- 61
2018-09-07 13:00:00 22.7 5 Sudeste 20 Sudeste 0 -- -- 62
2018-09-07 12:00:00 20.8 7 Sudeste 14 Sudeste 0 -- -- 67
2018-09-07 11:00:00 18.3 7 Sudeste 15 Sudeste 0 -- -- 74
2018-09-07 10:00:00 17.1 5 Sudeste 11 Sudeste 0 -- -- 78
2018-09-07 09:00:00 15.5 5 Sudeste 8 Sudeste 0 -- -- 83
2018-09-07 08:00:00 12.5 2 Este 6 Norte 0 -- -- 90
2018-09-07 07:00:00 13.2 0 Calma 10 Nordeste 0 -- -- 87
2018-09-07 06:00:00 13.9 5 Este 8 Este 0 -- -- 86
2018-09-07 05:00:00 15.2 3 Sur 15 Este 0 -- -- 79
2018-09-07 04:00:00 15.7 6 Este 19 Nordeste 0 -- -- 76
2018-09-07 03:00:00 16.4 12 Este 23 Nordeste 0 -- -- 73
2018-09-07 02:00:00 16.3 8 Este 22 Nordeste 0 -- -- 74
2018-09-07 01:00:00 16.4 12 Este 20 Este 0 -- -- 73
2018-09-07 00:00:00 14.5 10 Nordeste 19 Nordeste 0 -- -- 82
2018-09-06 23:00:00 14.7 11 Norte 13 Nordeste 0 -- -- 80
2018-09-06 22:00:00 15.6 9 Norte 12 Norte 0 -- -- 78
2018-09-06 21:00:00 18.3 7 Noroeste 13 Oeste 0 -- -- 74
2018-09-06 20:00:00 21.3 8 Oeste 15 Noroeste 0 -- -- 61
2018-09-06 19:00:00 21.9 9 Noroeste 22 Norte 0 -- -- 57
2018-09-06 18:00:00 22.6 13 Noroeste 32 Noroeste 0 -- -- 60
2018-09-06 17:00:00 23.3 18 Oeste 31 Oeste 0 -- -- 54
2018-09-06 16:00:00 23.5 13 Sudoeste 25 Sudoeste 0 -- -- 55
2018-09-06 15:00:00 22.6 11 Sudoeste 22 Sudoeste 0 -- -- 60
2018-09-06 14:00:00 23.2 8 Sudoeste 22 Oeste 0 -- -- 60
2018-09-06 13:00:00 22.7 6 Oeste 18 Oeste 0 -- -- 61
2018-09-06 12:00:00 21.6 6 Sudoeste 15 Noroeste 0 -- -- 62
2018-09-06 11:00:00 20 5 Sudeste 10 Sudeste 0 -- -- 63
2018-09-06 10:00:00 17.2 4 Sudeste 8 Sudeste 0 -- -- 75
2018-09-06 09:00:00 14.8 3 Noroeste 10 Norte 0 -- -- 85
2018-09-06 08:00:00 12.8 7 Norte 10 Norte 0 -- -- 91
2018-09-06 07:00:00 13.3 7 Norte 10 Norte 0 -- -- 90
2018-09-06 06:00:00 15 6 Oeste 11 Norte 0 -- -- 81
2018-09-06 05:00:00 15.5 7 Norte 22 Nordeste 0 -- -- 78
2018-09-06 04:00:00 16 8 Norte 23 Este 0 -- -- 73
2018-09-06 03:00:00 16.1 10 Este 21 Nordeste 0 -- -- 74
2018-09-06 02:00:00 15 8 Norte 20 Norte 0 -- -- 80
2018-09-06 01:00:00 15.4 3 Este 11 Nordeste 0 -- -- 78
2018-09-06 00:00:00 16.1 7 Noroeste 35 Noroeste 0 -- -- 74
2018-09-05 23:00:00 15.4 32 Noroeste 52 Noroeste 0 -- -- 85
2018-09-05 22:00:00 19.7 5 Nordeste 12 Nordeste 0 -- -- 86
2018-09-05 21:00:00 20.4 4 Sur 23 Sur 0 -- -- 81
2018-09-05 20:00:00 21.7 11 Sur 30 Sudeste 0 -- -- 73
2018-09-05 19:00:00 23.9 14 Sudeste 29 Sudeste 0 -- -- 57
2018-09-05 18:00:00 24.7 10 Sur 21 Sudeste 0 -- -- 56
2018-09-05 17:00:00 25.6 5 Sur 11 Sudoeste 0 -- -- 54
2018-09-05 16:00:00 25.9 5 Noroeste 13 Noroeste 0 -- -- 53
2018-09-05 15:00:00 24.2 9 Noroeste 13 Oeste 0 -- -- 62
2018-09-05 14:00:00 25 7 Sudoeste 19 Sur 0 -- -- 56
2018-09-05 13:00:00 24.7 7 Sudeste 17 Sudeste 0 -- -- 59
2018-09-05 12:00:00 23.2 12 Este 25 Este 0 -- -- 63
2018-09-05 11:00:00 21 17 Este 24 Este 0 -- -- 67
2018-09-05 10:00:00 19.1 9 Nordeste 23 Este 0 -- -- 74
2018-09-05 09:00:00 17 14 Nordeste 26 Nordeste 0 -- -- 79
2018-09-05 08:00:00 15.7 18 Nordeste 24 Nordeste 0 -- -- 84
2018-09-05 07:00:00 15 13 Nordeste 22 Este 0 -- -- 89
2018-09-05 06:00:00 15.1 17 Este 35 Este 0 -- -- 90
2018-09-05 05:00:00 15 19 Este 30 Este 0.2 -- -- 93
2018-09-05 04:00:00 15.3 9 Este 29 Norte 1.2 -- -- 94
2018-09-05 03:00:00 15.1 23 Norte 49 Oeste 9.6 -- -- 95
2018-09-05 02:00:00 18.5 26 Oeste 49 Oeste 0 -- -- 75
2018-09-05 01:00:00 19 4 Este 16 Este 0 -- -- 73
2018-09-05 00:00:00 19.7 9 Este 24 Este 0 -- -- 67
2018-09-04 23:00:00 20.7 13 Este 24 Nordeste 0 -- -- 75
2018-09-04 22:00:00 20.7 18 Nordeste 26 Nordeste 0 -- -- 56
2018-09-04 21:00:00 22.7 11 Este 22 Este 0 -- -- 54
2018-09-04 20:00:00 24.9 8 Sur 18 Sudeste 0 -- -- 56
2018-09-04 19:00:00 26.2 9 Sur 23 Sudeste 0 -- -- 45
2018-09-04 18:00:00 26.9 13 Sur 27 Sudeste 0 -- -- 45
2018-09-04 17:00:00 27.3 15 Sudeste 30 Sudeste 0 -- -- 45
2018-09-04 16:00:00 28 11 Sudeste 23 Este 0 -- -- 44
2018-09-04 15:00:00 28 9 Sudeste 22 Sudeste 0 -- -- 46
2018-09-04 14:00:00 26.8 6 Sudoeste 20 Sudeste 0 -- -- 48
2018-09-04 13:00:00 25.8 6 Sur 16 Sudeste 0 -- -- 54
2018-09-04 12:00:00 23.9 9 Sur 15 Sur 0 -- -- 57
2018-09-04 11:00:00 24 6 Este 15 Este 0 -- -- 56
2018-09-04 10:00:00 21.4 11 Este 18 Este 0 -- -- 59
2018-09-04 09:00:00 18.1 0 Calma 10 Norte 0 -- -- 66
2018-09-04 08:00:00 15 5 Norte 14 Norte 0 -- -- 74
2018-09-04 07:00:00 14.4 9 Norte 12 Norte 0 -- -- 76
2018-09-04 06:00:00 16.4 8 Norte 10 Noroeste 0 -- -- 69
2018-09-04 05:00:00 18.1 6 Norte 15 Noroeste 0 -- -- 63
2018-09-04 04:00:00 18.3 13 Nordeste 26 Este 0 -- -- 61
2018-09-04 03:00:00 18.4 18 Nordeste 28 Nordeste 0 -- -- 62
2018-09-04 02:00:00 18.9 12 Sudeste 27 Este 0 -- -- 58
2018-09-04 01:00:00 20.4 12 Norte 23 Nordeste 0 -- -- 62
2018-09-04 00:00:00 20.4 15 Este 26 Sudeste 0 -- -- 82
2018-09-03 23:00:00 21.2 14 Sudeste 37 Sur 0 -- -- 80
2018-09-03 22:00:00 22 23 Sur 41 Sur 0 -- -- 76
2018-09-03 21:00:00 22.7 9 Sudeste 17 Sudeste 0 -- -- 76
2018-09-03 20:00:00 24 6 Sudeste 24 Sur 0 -- -- 72
2018-09-03 19:00:00 25.8 12 Sur 25 Sur 0 -- -- 58
2018-09-03 18:00:00 26.4 15 Sur 30 Sur 0 -- -- 54
2018-09-03 17:00:00 28.1 13 Sudeste 23 Sudeste 0 -- -- 43
2018-09-03 16:00:00 27.3 8 Sur 23 Sudeste 0 -- -- 52
2018-09-03 15:00:00 25.9 12 Sur 35 Sur 0 -- -- 60
2018-09-03 14:00:00 26.2 16 Sur 28 Sudoeste 0 -- -- 63
2018-09-03 13:00:00 25.8 6 Sudeste 18 Sur 0 -- -- 60
2018-09-03 12:00:00 24.4 7 Sudeste 15 Sudeste 0 -- -- 65
2018-09-03 11:00:00 23.4 8 Este 17 Este 0 -- -- 71
2018-09-03 10:00:00 20.6 4 Sudeste 8 Este 0 -- -- 83
2018-09-03 09:00:00 18.4 4 Norte 10 Norte 0 -- -- 90
2018-09-03 08:00:00 16.4 4 Norte 8 Norte 0 -- -- 92
2018-09-03 07:00:00 16.6 0 Calma 8 Nordeste 0 -- -- 94
2018-09-03 06:00:00 17 3 Sur 11 Nordeste 0 -- -- 93
2018-09-03 05:00:00 16.5 5 Este 8 Norte 0 -- -- 93
2018-09-03 04:00:00 16.2 5 Norte 10 Nordeste 0 -- -- 91
2018-09-03 03:00:00 17.3 4 Este 10 Este 0 -- -- 89
2018-09-03 02:00:00 18.5 8 Este 15 Este 0 -- -- 87
2018-09-03 01:00:00 18.7 8 Este 15 Este 0 -- -- 86
2018-09-03 00:00:00 19.1 10 Este 15 Este 0 -- -- 80
2018-09-02 23:00:00 18.4 4 Sudeste 11 Sudeste 0 -- -- 80
2018-09-02 22:00:00 19.4 4 Noroeste 8 Norte 0 -- -- 74
2018-09-02 21:00:00 22.5 3 Nordeste 13 Sur 0 -- -- 65
2018-09-02 20:00:00 25.8 8 Sur 15 Oeste 0 -- -- 54
2018-09-02 19:00:00 26.9 11 Oeste 22 Noroeste 0 -- -- 51
2018-09-02 18:00:00 27.5 11 Oeste 21 Sudoeste 0 -- -- 50
2018-09-02 17:00:00 27.6 8 Noroeste 19 Oeste 0 -- -- 50
2018-09-02 16:00:00 27 10 Sudoeste 24 Oeste 0 -- -- 51
2018-09-02 15:00:00 25.4 9 Sur 20 Sudoeste 0 -- -- 57
2018-09-02 14:00:00 25.5 10 Sur 19 Sudoeste 0 -- -- 56
2018-09-02 13:00:00 24.6 7 Sur 14 Sudoeste 0 -- -- 61
2018-09-02 12:00:00 23.1 7 Sudeste 17 Este 0 -- -- 68
2018-09-02 11:00:00 21.9 10 Sudeste 16 Este 0 -- -- 75
2018-09-02 10:00:00 19.7 5 Sudeste 9 Este 0 -- -- 84
2018-09-02 09:00:00 17.8 0 Calma 5 Norte 0 -- -- 91
2018-09-02 08:00:00 15.7 3 Norte 7 Norte 0 -- -- 94
2018-09-02 07:00:00 16.1 5 Norte 6 Norte 0 -- -- 93
2018-09-02 06:00:00 15.9 3 Norte 8 Norte 0 -- -- 95
2018-09-02 05:00:00 15.8 3 Este 8 Este 0 -- -- 93
2018-09-02 04:00:00 16.5 5 Este 10 Este 0 -- -- 94
2018-09-02 03:00:00 16.9 8 Este 12 Este 0 -- -- 93
2018-09-02 02:00:00 17.6 10 Este 17 Este 0 -- -- 91
2018-09-02 01:00:00 17.9 13 Este 18 Sudeste 0 -- -- 89
2018-09-02 00:00:00 18.7 9 Sudeste 15 Sudeste 0 -- -- 83
2018-09-01 23:00:00 18.6 4 Sudeste 8 Sudeste 0 -- -- 78
2018-09-01 22:00:00 19.8 3 Este 8 Sudeste 0 -- -- 73
2018-09-01 21:00:00 22.1 6 Sudeste 13 Sudeste 0 -- -- 65
2018-09-01 20:00:00 24.4 8 Sur 18 Sudoeste 0 -- -- 57
2018-09-01 19:00:00 26.1 10 Sudoeste 21 Sudoeste 0 -- -- 52
2018-09-01 18:00:00 26.9 8 Sudoeste 20 Sudoeste 0 -- -- 51
2018-09-01 17:00:00 26.3 9 Sudoeste 22 Sudoeste 0 -- -- 53
2018-09-01 16:00:00 26 7 Sudoeste 17 Sudoeste 0 -- -- 52
2018-09-01 15:00:00 25.3 8 Sudoeste 17 Sur 0 -- -- 58
2018-09-01 14:00:00 23.8 10 Oeste 18 Sudoeste 0 -- -- 61
2018-09-01 13:00:00 23.5 12 Oeste 17 Oeste 0 -- -- 63
2018-09-01 12:00:00 24 4 Sur 17 Sur 0 -- -- 64
2018-09-01 11:00:00 22 5 Norte 11 Sur 0 -- -- 66
2018-09-01 10:00:00 20.6 6 Sudeste 9 Sudeste 0 -- -- 75
2018-09-01 09:00:00 18.6 6 Norte 9 Nordeste 0 -- -- 88
2018-09-01 08:00:00 16.4 0 Calma 9 Norte 0 -- -- 93
2018-09-01 07:00:00 16.7 4 Norte 6 Norte 0 -- -- 92
2018-09-01 06:00:00 17.3 0 Calma 9 Nordeste 0 -- -- 91
2018-09-01 05:00:00 16.7 5 Este 10 Este 0 -- -- 91
2018-09-01 04:00:00 17.1 8 Este 11 Este 0 -- -- 89
2018-09-01 03:00:00 17.1 7 Este 12 Este 0 -- -- 86
2018-09-01 02:00:00 17.1 9 Este 13 Este 0 -- -- 82
2018-09-01 01:00:00 17.6 8 Este 10 Este 0 -- -- 72
2018-09-01 00:00:00 17 5 Este 8 Este 0 -- -- 73
2018-08-31 23:00:00 17.2 2 Nordeste 8 Norte 0 -- -- 72
2018-08-31 22:00:00 17.9 3 Norte 7 Norte 0 -- -- 69
2018-08-31 21:00:00 20.9 0 Calma 12 Sudoeste 0 -- -- 60
2018-08-31 20:00:00 24.4 7 Sudoeste 15 Oeste 0 -- -- 46
2018-08-31 19:00:00 25.6 9 Oeste 21 Sudoeste 0 -- -- 44
2018-08-31 18:00:00 25.7 8 Oeste 24 Sur 0 -- -- 44
2018-08-31 17:00:00 25.5 13 Sudoeste 23 Sudoeste 0 -- -- 43
2018-08-31 16:00:00 24.6 9 Sur 27 Sur 0 -- -- 45
2018-08-31 15:00:00 23.5 14 Sur 31 Sudeste 0 -- -- 57
2018-08-31 14:00:00 23.2 14 Sur 30 Sudeste 0 -- -- 60
2018-08-31 13:00:00 23.5 16 Sur 30 Sur 0 -- -- 61
2018-08-31 12:00:00 23.2 6 Sudeste 16 Sur 0 -- -- 66
2018-08-31 11:00:00 22.6 6 Sudeste 13 Sudeste 0 -- -- 75
2018-08-31 10:00:00 19.6 3 Oeste 8 Oeste 0 -- -- 89
2018-08-31 09:00:00 18.5 2 Noroeste 6 Noroeste 0 -- -- 95
2018-08-31 08:00:00 18.1 5 Oeste 8 Oeste 0 -- -- 95
2018-08-31 07:00:00 18.3 3 Norte 5 Norte 0 -- -- 93
2018-08-31 06:00:00 19 3 Sudeste 8 Sudeste 0 -- -- 94
2018-08-31 05:00:00 19.1 4 Sudeste 5 Este 0 -- -- 93
2018-08-31 04:00:00 19.4 4 Este 6 Sudeste 0 -- -- 91
2018-08-31 03:00:00 19.7 0 Calma 10 Nordeste 0 -- -- 91
2018-08-31 02:00:00 19.4 7 Este 11 Nordeste 0 -- -- 91
2018-08-31 01:00:00 18.8 6 Este 9 Este 0 -- -- 91
2018-08-31 00:00:00 18.1 4 Nordeste 8 Norte 0 -- -- 85
2018-08-30 23:00:00 18.9 5 Norte 10 Sudeste 0 -- -- 80
2018-08-30 22:00:00 18.6 7 Norte 10 Norte 0 -- -- 78
2018-08-30 21:00:00 21.4 2 Norte 10 Sur 0 -- -- 68
2018-08-30 20:00:00 23.8 6 Sudoeste 16 Sudoeste 0 -- -- 58
2018-08-30 19:00:00 25.2 12 Sudoeste 23 Sudoeste 0 -- -- 55
2018-08-30 18:00:00 25.8 10 Sudoeste 23 Sudoeste 0 -- -- 54
2018-08-30 17:00:00 25.5 14 Sur 24 Sur 0 -- -- 56
2018-08-30 16:00:00 25.2 11 Sur 22 Sur 0 -- -- 59
2018-08-30 15:00:00 24.8 9 Sur 23 Sudeste 0 -- -- 62
2018-08-30 14:00:00 24.3 12 Sudeste 20 Sudeste 0 -- -- 63
2018-08-30 13:00:00 24.3 5 Sudeste 19 Sudeste 0 -- -- 66
2018-08-30 12:00:00 23.6 11 Sur 18 Sudeste 0 -- -- 68
2018-08-30 11:00:00 21.9 10 Sudeste 16 Sudeste 0 -- -- 76
2018-08-30 10:00:00 21 6 Sudeste 10 Sudeste 0 -- -- 78
2018-08-30 09:00:00 18.9 4 Sudeste 8 Este 0 -- -- 88
2018-08-30 08:00:00 17.8 0 Calma 8 Sudeste 0 -- -- 90
2018-08-30 07:00:00 16.7 2 Norte 6 Norte 0 -- -- 92
2018-08-30 06:00:00 16.8 4 Norte 8 Norte 0 -- -- 91
2018-08-30 05:00:00 17.6 6 Norte 9 Norte 0 -- -- 88
2018-08-30 04:00:00 19.2 3 Este 6 Norte 0 -- -- 83
2018-08-30 03:00:00 19.1 3 Nordeste 6 Norte 0 -- -- 83
2018-08-30 02:00:00 19.2 3 Sudoeste 13 Este 0 -- -- 82
2018-08-30 01:00:00 19.2 10 Este 24 Sudeste 0 -- -- 83
2018-08-30 00:00:00 20.2 18 Sudeste 28 Este 0 -- -- 82
2018-08-29 23:00:00 19.7 11 Sudeste 20 Sudeste 0 -- -- 78
2018-08-29 22:00:00 19.7 4 Norte 8 Este 0 -- -- 73
2018-08-29 21:00:00 22.5 4 Nordeste 11 Sudoeste 0 -- -- 64
2018-08-29 20:00:00 25.5 6 Sur 19 Sudoeste 0 -- -- 52
2018-08-29 19:00:00 26.9 12 Sur 22 Sudoeste 0 -- -- 48
2018-08-29 18:00:00 27.9 11 Sur 19 Sudoeste 0 -- -- 45
2018-08-29 17:00:00 27.9 10 Sur 20 Sudeste 0 -- -- 45
2018-08-29 16:00:00 27.7 10 Sur 21 Sudeste 0 -- -- 45
2018-08-29 15:00:00 27.2 10 Sur 21 Sudoeste 0 -- -- 48
2018-08-29 14:00:00 26.7 9 Sudeste 18 Sur 0 -- -- 48
2018-08-29 13:00:00 25.6 11 Sudeste 18 Sudeste 0 -- -- 53
2018-08-29 12:00:00 24.6 8 Sudeste 13 Sudeste 0 -- -- 59
2018-08-29 11:00:00 22.8 7 Sudeste 12 Este 0 -- -- 62
2018-08-29 10:00:00 20.5 5 Sudeste 8 Este 0 -- -- 70
2018-08-29 09:00:00 18.4 0 Calma 9 Norte 0 -- -- 75
2018-08-29 08:00:00 15.7 6 Norte 12 Norte 0 -- -- 81
2018-08-29 07:00:00 15 9 Norte 13 Norte 0 -- -- 83
2018-08-29 06:00:00 16 8 Norte 16 Nordeste 0 -- -- 81
2018-08-29 05:00:00 18 9 Nordeste 16 Nordeste 0 -- -- 72
2018-08-29 04:00:00 18.5 14 Nordeste 23 Nordeste 0 -- -- 68
2018-08-29 03:00:00 18 7 Norte 21 Nordeste 0 -- -- 76
2018-08-29 02:00:00 18.6 19 Nordeste 43 Este 0 -- -- 71
2018-08-29 01:00:00 17.9 18 Este 37 Nordeste 0 -- -- 79
2018-08-29 00:00:00 17.4 20 Este 33 Este 0.4 -- -- 82
2018-08-28 23:00:00 18.6 5 Norte 48 Sudoeste 0.6 -- -- 78
2018-08-28 22:00:00 19.6 11 Sur 50 Sudeste 0 -- -- 74
2018-08-28 21:00:00 18.9 31 Sudeste 50 Este 1 -- -- 80
2018-08-28 20:00:00 22.3 14 Sur 32 Sudeste 2 -- -- 74
2018-08-28 19:00:00 24.7 18 Sudeste 35 Sur 0 -- -- 71
2018-08-28 18:00:00 27.4 14 Sudeste 27 Sudeste 0 -- -- 53
2018-08-28 17:00:00 28.7 11 Sudeste 19 Sudeste 0 -- -- 51
2018-08-28 16:00:00 28 8 Sur 18 Sudeste 0 -- -- 55
2018-08-28 15:00:00 29.7 7 Sudeste 17 Sudeste 0 -- -- 47
2018-08-28 14:00:00 29.1 8 Sur 17 Sur 0 -- -- 47
2018-08-28 13:00:00 27.9 10 Sudeste 18 Sudeste 0 -- -- 53
2018-08-28 12:00:00 26.6 8 Este 19 Este 0 -- -- 55
2018-08-28 11:00:00 24.6 12 Este 19 Sudeste 0 -- -- 61
2018-08-28 10:00:00 22.8 7 Este 22 Este 0 -- -- 68
2018-08-28 09:00:00 21.8 13 Este 24 Este 0 -- -- 72
2018-08-28 08:00:00 20 4 Este 20 Nordeste 0 -- -- 77
2018-08-28 07:00:00 19.5 11 Nordeste 21 Nordeste 0 -- -- 78
2018-08-28 06:00:00 17.8 10 Nordeste 15 Nordeste 0 -- -- 82
2018-08-28 05:00:00 16.9 5 Nordeste 10 Nordeste 0 -- -- 90
2018-08-28 04:00:00 17.4 3 Norte 10 Norte 0 -- -- 89
2018-08-28 03:00:00 17.5 9 Norte 12 Norte 0 -- -- 90
2018-08-28 02:00:00 17.6 7 Norte 12 Norte 0 -- -- 86
2018-08-28 01:00:00 17.8 9 Norte 12 Norte 0 -- -- 80
2018-08-28 00:00:00 20.2 6 Este 12 Sudeste 0 -- -- 70
2018-08-27 23:00:00 19.2 3 Norte 9 Norte 0 -- -- 71
2018-08-27 22:00:00 20.3 6 Norte 10 Norte 0 -- -- 67
2018-08-27 21:00:00 23.3 3 Norte 9 Oeste 0 -- -- 61
2018-08-27 20:00:00 28.1 6 Noroeste 13 Oeste 0 -- -- 46
2018-08-27 19:00:00 29.1 6 Oeste 21 Oeste 0 -- -- 40
2018-08-27 18:00:00 29.2 9 Oeste 19 Oeste 0 -- -- 39
2018-08-27 17:00:00 29.4 9 Sudoeste 23 Oeste 0 -- -- 39
2018-08-27 16:00:00 28.8 9 Sudoeste 18 Oeste 0 -- -- 40
2018-08-27 15:00:00 27.9 11 Oeste 23 Oeste 0 -- -- 43
2018-08-27 14:00:00 27.3 12 Sudeste 19 Sudeste 0 -- -- 50
2018-08-27 13:00:00 26.4 6 Este 13 Este 0 -- -- 47
2018-08-27 12:00:00 25.1 5 Sudeste 10 Este 0 -- -- 48
2018-08-27 11:00:00 22.9 6 Este 10 Este 0 -- -- 57
2018-08-27 10:00:00 19.7 0 Calma 7 Sudoeste 0 -- -- 65
2018-08-27 09:00:00 17.6 4 Norte 10 Noroeste 0 -- -- 73
2018-08-27 08:00:00 13.6 0 Calma 10 Norte 0 -- -- 81
2018-08-27 07:00:00 13.2 5 Norte 10 Norte 0 -- -- 81
2018-08-27 06:00:00 13 8 Norte 11 Norte 0 -- -- 82
2018-08-27 05:00:00 12.9 7 Norte 11 Norte 0 -- -- 83
2018-08-27 04:00:00 13.1 3 Norte 10 Norte 0 -- -- 81
2018-08-27 03:00:00 13.9 6 Norte 13 Norte 0 -- -- 78
2018-08-27 02:00:00 14.3 12 Norte 14 Norte 0 -- -- 77
2018-08-27 01:00:00 14.4 8 Norte 11 Norte 0 -- -- 77
2018-08-27 00:00:00 14.9 6 Norte 10 Norte 0 -- -- 76
2018-08-26 23:00:00 15.8 9 Norte 13 Norte 0 -- -- 72
2018-08-26 22:00:00 16.9 12 Norte 14 Norte 0 -- -- 69
2018-08-26 21:00:00 19.2 5 Norte 9 Norte 0 -- -- 65
2018-08-26 20:00:00 23.7 7 Noroeste 15 Noroeste 0 -- -- 46
2018-08-26 19:00:00 24.4 9 Oeste 17 Oeste 0 -- -- 45
2018-08-26 18:00:00 24.4 10 Oeste 17 Oeste 0 -- -- 46
2018-08-26 17:00:00 24.1 8 Noroeste 18 Oeste 0 -- -- 46
2018-08-26 16:00:00 23.4 6 Sudoeste 20 Sur 0 -- -- 45
2018-08-26 15:00:00 22.5 9 Sur 29 Sudeste 0 -- -- 50
2018-08-26 14:00:00 21.6 14 Sudeste 24 Sudeste 0 -- -- 53
2018-08-26 13:00:00 20.1 11 Sudeste 21 Sudeste 0 -- -- 55
2018-08-26 12:00:00 18.9 9 Sur 17 Sudeste 0 -- -- 56
2018-08-26 11:00:00 17.4 7 Sudeste 16 Sudeste 0 -- -- 60
2018-08-26 10:00:00 15.8 8 Este 17 Este 0 -- -- 67
2018-08-26 09:00:00 13.9 6 Este 9 Este 0 -- -- 75
2018-08-26 08:00:00 10.5 3 Este 8 Nordeste 0 -- -- 85
2018-08-26 07:00:00 10.7 4 Este 8 Este 0 -- -- 81
2018-08-26 06:00:00 10.9 4 Nordeste 12 Este 0 -- -- 81
2018-08-26 05:00:00 11.5 8 Este 14 Este 0 -- -- 79
2018-08-26 04:00:00 12 8 Este 10 Este 0 -- -- 78
2018-08-26 03:00:00 12.8 6 Este 9 Este 0 -- -- 72
2018-08-26 02:00:00 13.7 5 Este 10 Sudeste 0 -- -- 70
2018-08-26 01:00:00 14.8 3 Nordeste 10 Este 0 -- -- 68
2018-08-26 00:00:00 17 6 Este 14 Sudeste 0 -- -- 58
2018-08-25 23:00:00 18.6 7 Sudeste 17 Sudeste 0 -- -- 52
2018-08-25 22:00:00 20.3 7 Sur 21 Sur 0 -- -- 47
2018-08-25 21:00:00 21.1 7 Sudeste 17 Sudoeste 0 -- -- 42
2018-08-25 20:00:00 22.8 8 Sudoeste 27 Oeste 0 -- -- 40
2018-08-25 19:00:00 24 13 Sudoeste 27 Sudoeste 0 -- -- 38
2018-08-25 18:00:00 23.9 14 Oeste 28 Oeste 0 -- -- 40
2018-08-25 17:00:00 23.8 14 Oeste 26 Sudoeste 0 -- -- 39
2018-08-25 16:00:00 22.5 14 Oeste 24 Noroeste 0 -- -- 48
2018-08-25 15:00:00 21.5 19 Noroeste 27 Noroeste 0 -- -- 51
2018-08-25 14:00:00 22.1 9 Oeste 23 Oeste 0 -- -- 55
2018-08-25 13:00:00 20.7 10 Oeste 19 Oeste 0 -- -- 60
2018-08-25 12:00:00 20.1 8 Sudoeste 15 Oeste 0 -- -- 63
2018-08-25 11:00:00 18.6 4 Sur 13 Sudeste 0 -- -- 65
2018-08-25 10:00:00 16.6 9 Sudeste 14 Sudeste 0 -- -- 70
2018-08-25 09:00:00 14.9 7 Sudeste 10 Sur 0 -- -- 75
2018-08-25 08:00:00 12.1 6 Nordeste 12 Nordeste 0 -- -- 89
2018-08-25 07:00:00 12 4 Este 7 Este 0 -- -- 87
2018-08-25 06:00:00 13.3 5 Este 10 Este 0 -- -- 83
2018-08-25 05:00:00 13.9 6 Este 11 Este 0 -- -- 81
2018-08-25 04:00:00 13.6 9 Norte 10 Norte 0 -- -- 85
2018-08-25 03:00:00 15.4 6 Este 10 Sudeste 0 -- -- 78
2018-08-25 02:00:00 15.8 3 Sudeste 12 Norte 0 -- -- 76
2018-08-25 01:00:00 17.6 6 Norte 17 Noroeste 0 -- -- 68
2018-08-25 00:00:00 17.6 8 Norte 12 Norte 0 -- -- 70
2018-08-24 23:00:00 19.9 5 Noroeste 16 Noroeste 0 -- -- 60
2018-08-24 22:00:00 20.9 12 Noroeste 17 Noroeste 0 -- -- 55
2018-08-24 21:00:00 22 13 Noroeste 26 Oeste 0 -- -- 51
2018-08-24 20:00:00 24.5 19 Oeste 38 Sudoeste 0 -- -- 43
2018-08-24 19:00:00 27.5 7 Noroeste 12 Oeste 0 -- -- 38
2018-08-24 18:00:00 27.7 6 Noroeste 18 Oeste 0 -- -- 37
2018-08-24 17:00:00 27.4 5 Oeste 20 Oeste 0 -- -- 37
2018-08-24 16:00:00 26.4 8 Oeste 21 Sudoeste 0 -- -- 35
2018-08-24 15:00:00 25.1 12 Noroeste 22 Noroeste 0 -- -- 40
2018-08-24 14:00:00 24.4 14 Oeste 23 Noroeste 0 -- -- 47
2018-08-24 13:00:00 24.1 11 Noroeste 20 Noroeste 0 -- -- 57
2018-08-24 12:00:00 24.6 10 Oeste 15 Oeste 0 -- -- 56
2018-08-24 11:00:00 24.6 5 Oeste 10 Oeste 0 -- -- 58
2018-08-24 10:00:00 20.8 3 Sudoeste 9 Oeste 0 -- -- 78
2018-08-24 09:00:00 17.8 6 Noroeste 11 Norte 0 -- -- 84
2018-08-24 08:00:00 14.4 8 Norte 10 Norte 0 -- -- 90
2018-08-24 07:00:00 14 7 Norte 10 Norte 0 -- -- 90
2018-08-24 06:00:00 14.5 8 Norte 12 Norte 0 -- -- 88
2018-08-24 05:00:00 15 6 Norte 9 Norte 0 -- -- 87
2018-08-24 04:00:00 15.6 8 Norte 10 Norte 0 -- -- 85
2018-08-24 03:00:00 15.7 7 Norte 10 Norte 0 -- -- 83
2018-08-24 02:00:00 16.6 8 Norte 10 Norte 0 -- -- 80
2018-08-24 01:00:00 17.5 5 Noroeste 13 Este 0 -- -- 77
2018-08-24 00:00:00 19.6 9 Nordeste 19 Nordeste 0 -- -- 68